Time;durP1;ratioP1;P1;durP2;ratioP2;P2;SDS_P1;SDS_P2;PMS_P1;PMS_P2;Temp;Humidity;BMP_temperature;BMP_pressure;BME280_temperature;BME280_humidity;BME280_pressure;Samples;Min_cycle;Max_cycle;Signal;HPM_P1;HPM_P2
2022/11/03 00:01:49;;;;;;;9.50;1.95;;;12.60;99.90;;;;;;5096142;28;20031;-50
2022/11/03 00:04:17;;;;;;;13.85;1.75;;;12.60;99.90;;;;;;5103387;28;20441;-39
2022/11/03 00:06:43;;;;;;;;;;;12.60;99.90;;;;;;5103868;28;20039;-42
2022/11/03 00:09:12;;;;;;;7.85;1.67;;;12.60;99.90;;;;;;5103899;28;19908;-36
2022/11/03 00:11:38;;;;;;;9.48;2.20;;;12.60;99.90;;;;;;5098966;28;20020;-33
2022/11/03 00:14:05;;;;;;;8.65;1.77;;;12.50;99.90;;;;;;5099178;28;20036;-31
2022/11/03 00:16:32;;;;;;;13.38;1.80;;;12.60;99.90;;;;;;5108503;28;20046;-38
2022/11/03 00:18:57;;;;;;;7.75;1.95;;;12.60;99.90;;;;;;5100726;28;20427;-34
2022/11/03 00:21:23;;;;;;;11.13;1.60;;;12.60;99.90;;;;;;5115295;28;20027;-44
2022/11/03 00:23:49;;;;;;;9.93;1.85;;;12.60;99.90;;;;;;5111158;27;20051;-31
2022/11/03 00:26:26;;;;;;;8.00;1.65;;;12.60;99.90;;;;;;5101634;28;20048;-31
2022/11/03 00:28:54;;;;;;;8.52;1.92;;;12.50;99.90;;;;;;5099461;28;20023;-31
2022/11/03 00:31:41;;;;;;;10.07;1.83;;;12.50;99.90;;;;;;5107493;28;20132;-31
2022/11/03 00:34:07;;;;;;;7.45;2.00;;;12.50;99.90;;;;;;5105839;28;20032;-34
2022/11/03 00:36:37;;;;;;;8.95;1.75;;;12.50;99.90;;;;;;5115874;28;20032;-34
2022/11/03 00:39:04;;;;;;;12.05;1.83;;;12.50;99.90;;;;;;5115694;27;20047;-31
2022/11/03 00:41:30;;;;;;;4.43;1.40;;;12.50;99.90;;;;;;5109759;28;20149;-31
2022/11/03 00:43:56;;;;;;;10.15;1.92;;;12.50;99.90;;;;;;5109169;28;20531;-30
2022/11/03 00:46:23;;;;;;;8.93;1.55;;;12.50;99.90;;;;;;5115482;28;20035;-39
2022/11/03 00:48:49;;;;;;;18.20;1.58;;;12.40;99.90;;;;;;5115200;28;20078;-39
2022/11/03 00:51:23;;;;;;;6.90;1.60;;;12.50;99.90;;;;;;5095174;28;20024;-41
2022/11/03 00:53:57;;;;;;;11.55;1.60;;;12.40;99.90;;;;;;5094739;28;20028;-40
2022/11/03 00:56:31;;;;;;;8.95;2.33;;;12.40;99.90;;;;;;5095195;28;20134;-40
2022/11/03 00:58:58;;;;;;;6.90;1.42;;;12.50;99.90;;;;;;5095488;28;20111;-40
2022/11/03 01:01:30;;;;;;;4.38;1.08;;;12.40;99.90;;;;;;5115647;28;20028;-40
2022/11/03 01:06:50;;;;;;;10.40;1.50;;;12.40;99.90;;;;;;5103330;28;20046;-38
2022/11/03 01:09:35;;;;;;;11.85;1.35;;;12.50;99.90;;;;;;5107403;28;20523;-40
2022/11/03 01:12:12;;;;;;;7.82;1.60;;;12.50;99.90;;;;;;5099274;28;20032;-41
2022/11/03 01:14:40;;;;;;;5.57;1.70;;;12.50;99.90;;;;;;5098408;28;20361;-40
2022/11/03 01:17:08;;;;;;;6.55;1.33;;;12.40;99.90;;;;;;5096201;28;20067;-39
2022/11/03 01:19:34;;;;;;;;;;;12.50;99.90;;;;;;5115357;28;20024;-40
2022/11/03 01:21:59;;;;;;;8.15;1.40;;;12.50;99.90;;;;;;5107644;28;19915;-30
2022/11/03 01:24:25;;;;;;;9.27;1.90;;;12.40;99.90;;;;;;5093702;28;20504;-36
2022/11/03 01:26:51;;;;;;;4.35;1.52;;;12.40;99.90;;;;;;5099876;28;20032;-35
2022/11/03 01:29:17;;;;;;;8.48;1.83;;;12.40;99.90;;;;;;5108584;28;20034;-36
2022/11/03 01:31:43;;;;;;;8.40;1.42;;;12.40;99.90;;;;;;5095496;28;20514;-33
2022/11/03 01:34:14;;;;;;;8.23;1.77;;;12.40;99.90;;;;;;5093175;28;20036;-34
2022/11/03 01:36:40;;;;;;;9.80;1.20;;;12.40;99.90;;;;;;5104997;28;20494;-31
2022/11/03 01:39:05;;;;;;;12.82;2.00;;;12.50;99.90;;;;;;5109306;28;20027;-33
2022/11/03 01:41:31;;;;;;;8.50;2.33;;;12.40;99.90;;;;;;5111027;28;20023;-34
2022/11/03 01:44:06;;;;;;;9.10;1.50;;;12.50;99.90;;;;;;5108588;28;20050;-37
2022/11/03 01:46:32;;;;;;;7.88;1.48;;;12.50;99.90;;;;;;5114332;28;20043;-32
2022/11/03 01:49:01;;;;;;;8.07;1.40;;;12.50;99.90;;;;;;5096135;28;20040;-62
2022/11/03 01:51:31;;;;;;;12.98;2.10;;;12.40;99.90;;;;;;5094722;28;20448;-31
2022/11/03 01:53:58;;;;;;;13.15;1.63;;;12.50;99.90;;;;;;5100681;28;20106;-38
2022/11/03 01:56:25;;;;;;;16.08;1.95;;;12.50;99.90;;;;;;5100570;28;20036;-40
2022/11/03 01:58:53;;;;;;;12.95;1.88;;;12.40;99.90;;;;;;5093411;28;20499;-34
2022/11/03 02:01:21;;;;;;;5.18;1.70;;;12.40;99.90;;;;;;5108291;28;20134;-37
2022/11/03 02:03:51;;;;;;;8.82;1.50;;;12.40;99.90;;;;;;5100688;28;20027;-46
2022/11/03 02:06:21;;;;;;;11.52;1.85;;;12.40;99.90;;;;;;5109218;28;20103;-39
2022/11/03 02:08:55;;;;;;;8.52;1.85;;;12.40;99.90;;;;;;5092197;28;20040;-33
2022/11/03 02:14:13;;;;;;;7.00;1.60;;;12.40;99.90;;;;;;5092525;28;20093;-40
2022/11/03 02:16:41;;;;;;;4.95;1.55;;;12.40;99.90;;;;;;5097184;28;20494;-41
2022/11/03 02:19:24;;;;;;;13.35;1.65;;;12.50;99.90;;;;;;5110840;28;20527;-40
2022/11/03 02:22:05;;;;;;;13.25;2.00;;;12.50;99.90;;;;;;5112140;28;20039;-41
2022/11/03 02:24:40;;;;;;;8.40;1.77;;;12.50;99.90;;;;;;5105571;28;20036;-42
2022/11/03 02:27:06;;;;;;;6.47;1.40;;;12.50;99.90;;;;;;5093342;28;20488;-48
2022/11/03 02:29:32;;;;;;;4.32;1.60;;;12.50;99.90;;;;;;5092727;28;20067;-40
2022/11/03 02:32:06;;;;;;;5.35;1.23;;;12.50;99.90;;;;;;5101344;28;20027;-40
2022/11/03 02:34:41;;;;;;;6.68;2.13;;;12.50;99.90;;;;;;5112293;28;20476;-40
2022/11/03 02:37:19;;;;;;;8.00;1.15;;;12.60;99.90;;;;;;5113516;28;20118;-42
2022/11/03 02:39:49;;;;;;;11.25;1.52;;;12.60;99.90;;;;;;5113562;28;20095;-40
2022/11/03 02:42:18;;;;;;;10.75;2.22;;;12.60;99.90;;;;;;5099746;28;20385;-46
2022/11/03 02:44:46;;;;;;;16.73;3.45;;;12.60;99.90;;;;;;5094716;28;20027;-36
2022/11/03 02:47:14;;;;;;;8.73;2.05;;;12.60;99.90;;;;;;5093383;28;20118;-41
2022/11/03 02:49:46;;;;;;;16.25;2.03;;;12.60;99.90;;;;;;5093072;28;20480;-38
2022/11/03 02:52:41;;;;;;;9.52;1.33;;;12.70;99.90;;;;;;5091307;28;20036;-42
2022/11/03 02:55:19;;;;;;;12.48;1.45;;;12.70;99.90;;;;;;5093043;28;20056;-40
2022/11/03 02:58:07;;;;;;;5.43;1.65;;;12.70;99.90;;;;;;5092626;28;20028;-39
2022/11/03 03:00:44;;;;;;;9.90;1.40;;;12.70;99.90;;;;;;5092806;28;20460;-41
2022/11/03 03:03:34;;;;;;;15.75;2.00;;;12.80;99.90;;;;;;5093122;28;20028;-31
2022/11/03 03:06:24;;;;;;;8.50;1.85;;;12.70;99.90;;;;;;5092418;28;20055;-42
2022/11/03 03:08:55;;;;;;;7.75;2.08;;;12.80;99.90;;;;;;5092931;28;20383;-40
2022/11/03 03:11:35;;;;;;;4.80;1.30;;;12.80;99.90;;;;;;5104269;28;20071;-41
2022/11/03 03:14:04;;;;;;;10.70;1.70;;;12.80;99.90;;;;;;5110844;28;20031;-44
2022/11/03 03:16:33;;;;;;;11.40;1.88;;;12.70;99.90;;;;;;5093302;28;20499;-41
2022/11/03 03:19:15;;;;;;;9.35;2.22;;;12.70;99.90;;;;;;5093050;28;20016;-40
2022/11/03 03:21:44;;;;;;;3.90;1.60;;;12.70;99.90;;;;;;5093249;28;20065;-40
2022/11/03 03:24:37;;;;;;;7.55;1.83;;;12.80;99.90;;;;;;5095149;28;20028;-39
2022/11/03 03:27:09;;;;;;;8.15;1.75;;;12.80;99.90;;;;;;5111330;28;20027;-31
2022/11/03 03:29:53;;;;;;;14.70;1.48;;;12.80;99.90;;;;;;5096651;28;20062;-37
2022/11/03 03:32:21;;;;;;;7.22;1.88;;;12.80;99.90;;;;;;5095672;28;20024;-36
2022/11/03 03:34:49;;;;;;;9.60;1.73;;;12.80;99.90;;;;;;5091469;28;20610;-32
2022/11/03 03:37:16;;;;;;;7.25;1.27;;;12.80;99.90;;;;;;5096691;28;20106;-35
2022/11/03 03:39:46;;;;;;;8.65;1.67;;;12.90;99.90;;;;;;5096266;28;20012;-33
2022/11/03 03:42:14;;;;;;;7.05;1.90;;;12.90;99.90;;;;;;5095991;28;20028;-31
2022/11/03 03:44:41;;;;;;;9.90;2.23;;;12.80;99.90;;;;;;5096298;28;20024;-33
2022/11/03 03:47:16;;;;;;;4.38;0.95;;;12.90;99.90;;;;;;5102450;28;20026;-33
2022/11/03 03:49:42;;;;;;;6.05;1.60;;;12.90;99.90;;;;;;5109031;28;20077;-36
2022/11/03 03:52:08;;;;;;;5.15;1.88;;;12.90;99.90;;;;;;5095832;28;20036;-35
2022/11/03 03:54:34;;;;;;;6.63;1.75;;;12.80;99.90;;;;;;5096117;28;20032;-34
2022/11/03 03:57:02;;;;;;;8.32;1.48;;;12.90;99.90;;;;;;5095825;28;20024;-40
2022/11/03 03:59:28;;;;;;;3.67;1.42;;;12.90;99.90;;;;;;5096137;28;20044;-41
2022/11/03 04:01:54;;;;;;;12.20;2.08;;;12.90;99.90;;;;;;5094587;28;20544;-41
2022/11/03 04:04:20;;;;;;;8.27;1.90;;;12.90;99.90;;;;;;5096077;28;20472;-40
2022/11/03 04:06:45;;;;;;;9.18;1.83;;;12.90;99.90;;;;;;5096594;28;20031;-44
2022/11/03 04:09:11;;;;;;;10.82;2.33;;;12.90;99.90;;;;;;5095901;28;20072;-42
2022/11/03 04:22:56;;;;;;;5.03;1.10;;;12.90;99.90;;;;;;5103759;28;20539;-33
2022/11/03 04:25:22;;;;;;;8.20;1.13;;;12.90;99.90;;;;;;5102064;28;20054;-36
2022/11/03 04:27:47;;;;;;;15.77;1.75;;;13.00;99.90;;;;;;5111101;28;20049;-35
2022/11/03 04:30:19;;;;;;;14.45;1.95;;;12.90;99.90;;;;;;5110710;28;20027;-36
2022/11/03 04:32:50;;;;;;;9.05;1.70;;;12.90;99.90;;;;;;5099719;28;20024;-38
2022/11/03 04:35:20;;;;;;;18.83;2.85;;;12.90;99.90;;;;;;5098180;28;20043;-41
2022/11/03 04:38:12;;;;;;;12.80;2.33;;;12.90;99.90;;;;;;5095270;28;20484;-40
2022/11/03 04:40:43;;;;;;;8.95;1.23;;;12.90;99.90;;;;;;5099363;28;20055;-42
2022/11/03 04:43:19;;;;;;;12.82;1.63;;;12.90;99.90;;;;;;5094127;28;20028;-42
2022/11/03 04:45:46;;;;;;;8.15;1.67;;;12.90;99.90;;;;;;5093651;28;20557;-40
2022/11/03 04:48:13;;;;;;;11.05;1.70;;;12.90;99.90;;;;;;5095224;28;20024;-40
2022/11/03 04:50:40;;;;;;;2.47;1.48;;;12.90;99.90;;;;;;5095286;28;20062;-42
2022/11/03 04:53:13;;;;;;;3.65;0.90;;;12.90;99.90;;;;;;5099042;28;20056;-41
2022/11/03 04:55:40;;;;;;;4.65;1.38;;;12.90;99.90;;;;;;5105890;28;20514;-40
2022/11/03 04:58:15;;;;;;;10.07;2.03;;;12.90;99.90;;;;;;5105627;28;20027;-42
2022/11/03 05:00:40;;;;;;;13.77;2.25;;;12.90;99.90;;;;;;5115426;28;20499;-40
2022/11/03 05:03:15;;;;;;;6.30;2.28;;;13.00;99.90;;;;;;5113015;28;20035;-39
2022/11/03 05:05:42;;;;;;;8.27;1.60;;;12.90;99.90;;;;;;5095437;28;20016;-41
2022/11/03 05:08:08;;;;;;;11.43;1.80;;;12.90;99.90;;;;;;5094860;28;20106;-48
2022/11/03 05:10:34;;;;;;;12.55;1.40;;;12.90;99.90;;;;;;5096573;28;20032;-43
2022/11/03 05:13:00;;;;;;;5.32;1.65;;;12.90;99.90;;;;;;5095284;28;20073;-41
2022/11/03 05:15:28;;;;;;;7.95;1.33;;;12.90;99.90;;;;;;5107102;28;20051;-41
2022/11/03 05:17:55;;;;;;;5.13;1.15;;;13.00;99.90;;;;;;5115219;28;20471;-41
2022/11/03 05:20:45;;;;;;;8.30;1.38;;;13.00;99.90;;;;;;5109933;28;20099;-43
2022/11/03 05:23:11;;;;;;;4.00;1.58;;;13.00;99.90;;;;;;5105838;28;20479;-43
2022/11/03 05:25:42;;;;;;;8.90;1.67;;;13.00;99.90;;;;;;5098576;28;20078;-41
2022/11/03 05:28:33;;;;;;;7.20;1.83;;;13.00;99.90;;;;;;5114821;27;20030;-41
2022/11/03 05:30:59;;;;;;;9.82;1.42;;;13.10;99.90;;;;;;5111771;28;20102;-47
2022/11/03 05:33:30;;;;;;;8.35;1.60;;;13.10;99.90;;;;;;5094519;28;20020;-41
2022/11/03 05:35:59;;;;;;;3.97;1.35;;;13.00;99.90;;;;;;5093999;28;20032;-41
2022/11/03 05:38:30;;;;;;;13.77;1.27;;;13.00;99.90;;;;;;5094159;28;20024;-40
2022/11/03 05:40:56;;;;;;;5.95;1.48;;;13.10;99.90;;;;;;5102480;28;20028;-41
2022/11/03 05:43:22;;;;;;;6.55;2.00;;;13.10;99.90;;;;;;5094143;28;20543;-40
2022/11/03 05:45:53;;;;;;;7.88;2.00;;;13.10;99.90;;;;;;5093974;28;20099;-41
2022/11/03 05:48:35;;;;;;;8.02;1.48;;;13.10;99.90;;;;;;5097694;28;20507;-42
2022/11/03 05:51:23;;;;;;;10.80;2.08;;;13.10;99.90;;;;;;5114785;28;20055;-40
2022/11/03 05:53:56;;;;;;;9.63;1.35;;;13.10;99.90;;;;;;5095626;28;20028;-41
2022/11/03 05:56:23;;;;;;;8.48;1.35;;;13.20;99.90;;;;;;5093657;28;20039;-40
2022/11/03 05:58:52;;;;;;;5.80;1.65;;;13.20;99.90;;;;;;5094200;28;20034;-33
2022/11/03 06:01:29;;;;;;;7.55;1.58;;;13.20;99.90;;;;;;5093551;28;20041;-32
2022/11/03 06:03:56;;;;;;;1.17;0.90;;;13.20;99.90;;;;;;5093368;28;20030;-35
2022/11/03 06:06:28;;;;;;;5.13;1.85;;;13.20;99.90;;;;;;5094441;28;20548;-31
2022/11/03 06:08:57;;;;;;;7.78;1.17;;;13.20;99.90;;;;;;5093560;28;20070;-34
2022/11/03 06:11:35;;;;;;;3.60;1.10;;;13.20;99.90;;;;;;5096520;28;20418;-34
2022/11/03 06:14:07;;;;;;;8.73;1.38;;;13.20;99.90;;;;;;5093495;28;20515;-35
2022/11/03 06:16:36;;;;;;;7.65;1.88;;;13.20;99.90;;;;;;5102428;28;20023;-31
2022/11/03 06:19:19;;;;;;;6.13;1.83;;;13.20;99.90;;;;;;5113666;28;20031;-34
2022/11/03 06:21:46;;;;;;;6.88;2.28;;;13.30;99.90;;;;;;5104276;28;20020;-35
2022/11/03 06:24:13;;;;;;;4.20;1.63;;;13.30;99.90;;;;;;5093895;28;20465;-31
2022/11/03 06:26:40;;;;;;;7.15;1.35;;;13.20;99.90;;;;;;5093892;28;20028;-33
2022/11/03 06:29:14;;;;;;;6.07;1.60;;;13.20;99.90;;;;;;5113577;28;20102;-33
2022/11/03 06:31:39;;;;;;;9.15;1.50;;;13.30;99.90;;;;;;5097224;28;20542;-33
2022/11/03 06:34:21;;;;;;;7.80;1.33;;;13.30;99.90;;;;;;5092763;28;20028;-38
2022/11/03 06:36:47;;;;;;;5.63;1.48;;;13.30;99.90;;;;;;5091804;28;20036;-35
2022/11/03 06:39:20;;;;;;;8.32;1.60;;;13.30;99.90;;;;;;5096605;28;20039;-40
2022/11/03 06:41:45;;;;;;;5.80;1.42;;;13.30;99.90;;;;;;5093695;28;20388;-37
2022/11/03 06:44:23;;;;;;;8.27;1.80;;;13.30;99.90;;;;;;5093185;28;20016;-36
2022/11/03 06:46:50;;;;;;;5.68;2.05;;;13.40;99.90;;;;;;5103822;28;20032;-35
2022/11/03 06:49:34;;;;;;;5.35;1.00;;;13.30;99.90;;;;;;5113609;28;20042;-31
2022/11/03 06:52:24;;;;;;;10.15;1.73;;;13.30;99.90;;;;;;5091735;28;20526;-32
2022/11/03 06:55:13;;;;;;;8.07;1.67;;;13.40;99.90;;;;;;5097182;28;20088;-32
2022/11/03 06:57:40;;;;;;;6.53;1.95;;;13.40;99.90;;;;;;5092444;28;20553;-36
2022/11/03 07:00:21;;;;;;;12.63;1.52;;;13.40;99.90;;;;;;5098769;28;20047;-29
2022/11/03 07:03:00;;;;;;;7.72;1.40;;;13.40;99.90;;;;;;5113850;28;20027;-42
2022/11/03 07:05:28;;;;;;;14.80;2.58;;;13.40;99.90;;;;;;5108778;28;20031;-41
2022/11/03 07:07:59;;;;;;;5.53;1.45;;;13.40;99.90;;;;;;5108063;27;20050;-57
2022/11/03 07:10:30;;;;;;;16.80;2.20;;;13.50;99.90;;;;;;5099207;28;20024;-39
2022/11/03 07:13:00;;;;;;;6.88;1.40;;;13.50;99.90;;;;;;5099872;28;20472;-41
2022/11/03 07:15:38;;;;;;;5.78;1.48;;;13.50;99.90;;;;;;5100391;28;20495;-37
2022/11/03 07:18:14;;;;;;;8.05;1.52;;;13.50;99.90;;;;;;5110115;28;20038;-33
2022/11/03 07:20:40;;;;;;;5.85;2.22;;;13.60;99.90;;;;;;5113958;28;20023;-34
2022/11/03 07:23:14;;;;;;;8.38;2.35;;;13.60;99.90;;;;;;5103655;27;20028;-37
2022/11/03 07:25:39;;;;;;;4.45;0.93;;;13.60;99.90;;;;;;5118189;27;20031;-35
2022/11/03 07:28:05;;;;;;;4.63;1.50;;;13.60;99.90;;;;;;5107066;27;20028;-37
2022/11/03 07:30:35;;;;;;;12.18;2.03;;;13.60;99.90;;;;;;5103352;28;20111;-37
2022/11/03 07:33:13;;;;;;;14.07;2.30;;;13.60;99.90;;;;;;5106894;28;20073;-44
2022/11/03 07:35:44;;;;;;;9.93;1.30;;;13.70;99.90;;;;;;5118023;28;20027;-37
2022/11/03 07:38:13;;;;;;;5.60;1.95;;;13.70;99.90;;;;;;5119439;27;20030;-35
2022/11/03 07:40:39;;;;;;;5.45;1.83;;;13.70;99.90;;;;;;5119924;27;20536;-39
2022/11/03 07:43:26;;;;;;;6.65;1.60;;;13.80;99.90;;;;;;5118371;28;20023;-38
2022/11/03 07:45:54;;;;;;;9.13;1.95;;;13.80;99.90;;;;;;5107065;28;20024;-34
2022/11/03 07:48:32;;;;;;;4.55;1.65;;;13.90;99.90;;;;;;5110781;28;20383;-36
2022/11/03 07:51:26;;;;;;;12.82;1.52;;;13.90;99.90;;;;;;5110749;28;20053;-32
2022/11/03 07:54:14;;;;;;;2.70;1.73;;;13.80;99.90;;;;;;5119238;27;20069;-38
2022/11/03 07:56:54;;;;;;;5.82;1.40;;;13.80;99.90;;;;;;5119265;27;20387;-31
2022/11/03 07:59:32;;;;;;;6.95;2.00;;;13.80;99.90;;;;;;5119129;27;20032;-34
2022/11/03 08:01:59;;;;;;;4.38;1.70;;;14.00;99.90;;;;;;5114663;27;20047;-32
2022/11/03 08:04:29;;;;;;;7.77;1.70;;;14.00;99.90;;;;;;5115450;27;20020;-33
2022/11/03 08:06:54;;;;;;;7.53;1.65;;;14.00;99.90;;;;;;5098838;28;20043;-40
2022/11/03 08:09:20;;;;;;;6.20;1.52;;;14.00;99.90;;;;;;5099747;28;20028;-34
2022/11/03 08:11:47;;;;;;;11.15;1.92;;;14.00;99.90;;;;;;5115571;28;20035;-35
2022/11/03 08:14:13;;;;;;;10.48;1.58;;;14.10;99.90;;;;;;5116156;28;20019;-33
2022/11/03 08:16:39;;;;;;;6.47;1.60;;;14.10;99.90;;;;;;5116163;28;20383;-31
2022/11/03 08:19:05;;;;;;;6.63;1.45;;;14.10;99.90;;;;;;5110059;28;20467;-45
2022/11/03 08:21:31;;;;;;;8.05;1.58;;;14.10;99.90;;;;;;5099858;28;20544;-36
2022/11/03 08:23:57;;;;;;;8.18;1.45;;;14.20;99.90;;;;;;5107563;28;20020;-38
2022/11/03 08:26:22;;;;;;;4.25;1.08;;;14.20;99.90;;;;;;5102192;28;20565;-37
2022/11/03 08:28:48;;;;;;;8.95;1.20;;;14.20;99.90;;;;;;5106732;28;20362;-34
2022/11/03 08:31:13;;;;;;;9.77;1.73;;;14.30;99.90;;;;;;5105498;27;20016;-34
2022/11/03 08:33:40;;;;;;;19.40;1.63;;;14.20;99.90;;;;;;5111045;28;20020;-32
2022/11/03 08:36:07;;;;;;;7.60;1.92;;;14.30;99.90;;;;;;5103841;28;20028;-36
2022/11/03 08:38:33;;;;;;;5.07;1.70;;;14.30;99.90;;;;;;5097972;28;20023;-32
2022/11/03 08:40:58;;;;;;;6.57;1.70;;;14.40;99.90;;;;;;5104158;28;20047;-32
2022/11/03 08:43:24;;;;;;;6.95;1.60;;;14.50;99.90;;;;;;5104335;27;20467;-43
2022/11/03 08:45:52;;;;;;;4.28;1.90;;;14.50;99.90;;;;;;5112931;28;20031;-32
2022/11/03 08:48:27;;;;;;;;;;;14.40;99.90;;;;;;5096894;28;20493;-32
2022/11/03 08:50:53;;;;;;;7.47;1.35;;;14.50;99.90;;;;;;5097261;28;20381;-32
2022/11/03 08:53:26;;;;;;;11.52;1.48;;;14.60;99.90;;;;;;5112809;27;20028;-38
2022/11/03 08:55:52;;;;;;;6.20;1.80;;;14.60;99.90;;;;;;5110075;28;20071;-35
2022/11/03 08:58:19;;;;;;;5.70;1.27;;;14.60;99.90;;;;;;5098720;27;20497;-38
2022/11/03 09:00:44;;;;;;;19.25;2.25;;;14.60;99.90;;;;;;5110366;27;20044;-34
2022/11/03 09:03:10;;;;;;;7.22;1.55;;;14.60;99.90;;;;;;5095642;28;20366;-32
2022/11/03 09:05:35;;;;;;;6.38;2.17;;;14.60;99.90;;;;;;5093903;28;20024;-43
2022/11/03 09:08:01;;;;;;;16.67;1.67;;;14.70;99.90;;;;;;5094809;28;20030;-34
2022/11/03 09:10:27;;;;;;;5.00;1.55;;;14.70;99.90;;;;;;5093988;28;20036;-37
2022/11/03 09:12:54;;;;;;;12.77;1.85;;;14.80;99.90;;;;;;5093900;28;20034;-34
2022/11/03 09:15:19;;;;;;;6.22;1.15;;;14.80;99.90;;;;;;5102776;28;20099;-35
2022/11/03 09:17:45;;;;;;;13.27;3.20;;;14.70;99.90;;;;;;5096340;28;20131;-34
2022/11/03 09:20:11;;;;;;;8.68;1.70;;;14.80;99.90;;;;;;5096557;28;20392;-31
2022/11/03 09:22:37;;;;;;;6.63;1.25;;;14.80;99.90;;;;;;5102451;28;20471;-31
2022/11/03 09:25:03;;;;;;;6.78;1.92;;;14.90;99.90;;;;;;5103098;28;20498;-36
2022/11/03 09:27:29;;;;;;;9.82;1.35;;;14.90;99.90;;;;;;5103222;28;20078;-38
2022/11/03 09:29:55;;;;;;;13.60;2.25;;;14.90;99.90;;;;;;5108828;28;20130;-41
2022/11/03 09:32:21;;;;;;;6.07;1.75;;;14.90;99.90;;;;;;5107981;28;20081;-41
2022/11/03 09:34:47;;;;;;;8.10;1.85;;;14.90;99.90;;;;;;5113080;28;20032;-40
2022/11/03 09:37:12;;;;;;;11.25;1.95;;;14.90;99.90;;;;;;5114659;28;20043;-39
2022/11/03 09:39:38;;;;;;;9.77;2.05;;;15.00;99.90;;;;;;5113227;28;20089;-41
2022/11/03 09:42:04;;;;;;;8.65;1.35;;;15.00;99.90;;;;;;5103914;28;20150;-40
2022/11/03 09:44:35;;;;;;;6.05;0.98;;;15.00;99.90;;;;;;5108194;28;20601;-36
2022/11/03 09:47:02;;;;;;;14.73;2.92;;;14.90;99.90;;;;;;5109441;28;20034;-34
2022/11/03 09:49:30;;;;;;;5.85;1.63;;;14.90;99.90;;;;;;5107328;28;20442;-39
2022/11/03 09:51:56;;;;;;;9.90;2.03;;;14.90;99.90;;;;;;5107587;27;20134;-35
2022/11/03 09:54:22;;;;;;;9.63;1.48;;;14.90;99.90;;;;;;5117438;27;20102;-32
2022/11/03 09:56:48;;;;;;;15.02;1.80;;;14.80;99.90;;;;;;5093968;28;20035;-35
2022/11/03 09:59:14;;;;;;;4.82;1.65;;;14.90;99.90;;;;;;5093753;28;20131;-34
2022/11/03 10:01:40;;;;;;;4.90;1.50;;;14.90;99.90;;;;;;5107934;28;20454;-34
2022/11/03 10:04:10;;;;;;;6.07;1.67;;;15.00;99.90;;;;;;5113974;28;20065;-37
2022/11/03 10:06:35;;;;;;;9.43;1.30;;;14.90;99.90;;;;;;5098710;28;20107;-35
2022/11/03 10:09:01;;;;;;;3.83;1.27;;;14.90;99.90;;;;;;5094901;28;20070;-37
2022/11/03 10:11:27;;;;;;;10.20;1.48;;;15.00;99.90;;;;;;5111919;28;20030;-32
2022/11/03 10:13:55;;;;;;;4.63;1.17;;;14.90;99.90;;;;;;5113894;28;20396;-34
2022/11/03 10:16:23;;;;;;;3.45;1.50;;;14.90;99.90;;;;;;5101514;28;20032;-34
2022/11/03 10:18:49;;;;;;;5.88;1.40;;;14.90;99.90;;;;;;5104110;28;20020;-35
2022/11/03 10:21:24;;;;;;;3.63;1.20;;;14.90;99.90;;;;;;5111724;28;20469;-36
2022/11/03 10:23:50;;;;;;;7.30;1.50;;;14.90;99.90;;;;;;5102615;27;20069;-32
2022/11/03 10:26:18;;;;;;;6.70;1.35;;;14.90;99.90;;;;;;5102957;27;20027;-31
2022/11/03 10:29:04;;;;;;;5.00;1.33;;;14.90;99.90;;;;;;5100804;28;20093;-37
2022/11/03 10:31:40;;;;;;;5.55;1.27;;;15.00;99.90;;;;;;5105156;28;20034;-34
2022/11/03 10:34:36;;;;;;;12.30;1.42;;;15.00;99.90;;;;;;5094046;28;20028;-33
2022/11/03 10:37:21;;;;;;;3.42;1.20;;;15.10;99.90;;;;;;5100351;28;20023;-36
2022/11/03 10:39:50;;;;;;;8.00;2.05;;;15.10;99.90;;;;;;5107180;28;20391;-34
2022/11/03 10:42:20;;;;;;;4.68;1.10;;;15.10;99.90;;;;;;5097658;28;20423;-40
2022/11/03 10:44:46;;;;;;;4.60;1.33;;;15.10;99.90;;;;;;5110352;28;20496;-34
2022/11/03 10:47:32;;;;;;;8.30;1.60;;;15.10;99.90;;;;;;5112525;28;20024;-34
2022/11/03 10:49:58;;;;;;;2.33;1.20;;;15.10;99.90;;;;;;5113432;28;20035;-37
2022/11/03 10:52:27;;;;;;;6.65;2.28;;;15.20;99.90;;;;;;5106378;28;20102;-31
2022/11/03 10:54:55;;;;;;;6.30;1.50;;;15.20;99.90;;;;;;5110077;28;20865;-31
2022/11/03 10:57:21;;;;;;;;;;;15.30;99.90;;;;;;5094931;28;20480;-33
2022/11/03 10:59:50;;;;;;;6.72;2.38;;;15.20;99.90;;;;;;5111910;28;19914;-34
2022/11/03 11:02:24;;;;;;;4.90;1.52;;;15.20;99.90;;;;;;5101459;28;20515;-39
2022/11/03 11:05:10;;;;;;;10.70;2.05;;;15.30;99.90;;;;;;5096215;28;20023;-34
2022/11/03 11:07:42;;;;;;;9.30;1.60;;;15.30;99.90;;;;;;5096965;28;20074;-37
2022/11/03 11:10:14;;;;;;;6.53;1.30;;;15.30;99.90;;;;;;5110791;28;20361;-33
2022/11/03 11:13:14;;;;;;;9.15;1.40;;;15.40;99.90;;;;;;5099818;28;20472;-36
2022/11/03 11:15:47;;;;;;;4.68;1.20;;;15.40;99.90;;;;;;5112056;28;20081;-34
2022/11/03 11:18:39;;;;;;;6.35;1.30;;;15.50;99.90;;;;;;5106050;28;20032;-33
2022/11/03 11:21:19;;;;;;;10.20;1.67;;;15.50;99.90;;;;;;5082555;28;20043;-34
2022/11/03 11:23:46;;;;;;;8.40;1.85;;;15.60;99.90;;;;;;5092683;28;20472;-37
2022/11/03 11:26:13;;;;;;;5.00;1.40;;;15.60;99.90;;;;;;5114805;28;20545;-38
2022/11/03 11:28:43;;;;;;;2.33;1.10;;;15.70;99.90;;;;;;5091547;28;20500;-31
2022/11/03 11:31:21;;;;;;;3.33;1.05;;;15.60;99.90;;;;;;5094713;28;20020;-42
2022/11/03 11:33:47;;;;;;;8.10;1.45;;;15.70;99.90;;;;;;5111742;28;20123;-41
2022/11/03 11:36:24;;;;;;;3.22;1.00;;;15.70;99.90;;;;;;5104941;28;20028;-37
2022/11/03 11:38:51;;;;;;;2.15;1.20;;;15.80;99.90;;;;;;5112187;28;20027;-31
2022/11/03 11:41:17;;;;;;;5.25;1.10;;;15.80;99.90;;;;;;5108973;28;20023;-32
2022/11/03 11:44:20;;;;;;;6.22;1.48;;;15.80;99.90;;;;;;5103199;28;20024;-37
2022/11/03 11:46:46;;;;;;;6.30;1.08;;;15.90;99.90;;;;;;5112052;28;20024;-36
2022/11/03 11:49:11;;;;;;;4.07;1.27;;;15.90;99.90;;;;;;5106442;28;20036;-34
2022/11/03 11:51:37;;;;;;;9.02;1.08;;;15.90;99.90;;;;;;5116357;27;20032;-33
2022/11/03 11:54:18;;;;;;;6.00;1.33;;;16.00;99.90;;;;;;5116342;28;20062;-32
2022/11/03 11:56:46;;;;;;;7.10;1.40;;;16.10;99.90;;;;;;5126027;27;20035;-35
2022/11/03 11:59:17;;;;;;;;;;;16.20;99.90;;;;;;5118340;27;20043;-36
2022/11/03 12:01:43;;;;;;;2.80;1.58;;;16.20;99.90;;;;;;5095234;28;19922;-35
2022/11/03 12:04:26;;;;;;;4.60;1.00;;;16.30;99.90;;;;;;5096532;28;20477;-38
2022/11/03 12:06:51;;;;;;;8.80;1.30;;;16.20;99.90;;;;;;5096204;28;20090;-37
2022/11/03 12:09:28;;;;;;;3.65;1.30;;;16.20;99.90;;;;;;5095934;28;20536;-36
2022/11/03 12:11:56;;;;;;;5.43;1.15;;;16.20;99.90;;;;;;5113560;27;20028;-33
2022/11/03 12:14:25;;;;;;;6.10;1.20;;;16.30;99.90;;;;;;5116212;28;20499;-44
2022/11/03 12:16:51;;;;;;;10.73;1.33;;;16.30;99.90;;;;;;5109478;28;20826;-41
2022/11/03 12:19:35;;;;;;;5.53;1.15;;;16.30;99.90;;;;;;5096711;28;20028;-40
2022/11/03 12:22:02;;;;;;;4.97;1.52;;;16.40;99.90;;;;;;5100978;28;20027;-34
2022/11/03 12:24:31;;;;;;;4.32;1.02;;;16.50;99.90;;;;;;5108195;27;20012;-32
2022/11/03 12:26:58;;;;;;;4.88;1.50;;;16.50;99.90;;;;;;5115484;28;20058;-33
2022/11/03 12:29:23;;;;;;;5.60;1.10;;;16.40;99.90;;;;;;5115551;28;20032;-38
2022/11/03 12:31:49;;;;;;;7.25;1.40;;;16.40;99.90;;;;;;5110504;28;20118;-41
2022/11/03 12:34:16;;;;;;;3.95;1.13;;;16.40;99.90;;;;;;5101770;28;20035;-43
2022/11/03 12:36:45;;;;;;;5.28;1.20;;;16.30;99.90;;;;;;5113433;28;20039;-43
2022/11/03 12:39:11;;;;;;;2.75;1.23;;;16.30;99.90;;;;;;5110507;28;20024;-42
2022/11/03 12:41:37;;;;;;;3.38;1.00;;;16.30;99.90;;;;;;5114686;28;20032;-45
2022/11/03 12:44:03;;;;;;;3.92;1.35;;;16.30;99.90;;;;;;5107584;28;20099;-44
2022/11/03 12:46:28;;;;;;;3.67;1.45;;;16.30;99.90;;;;;;5095455;28;20453;-40
2022/11/03 12:48:54;;;;;;;4.55;1.20;;;16.30;99.90;;;;;;5095365;28;20024;-43
2022/11/03 12:51:22;;;;;;;4.65;1.45;;;16.40;99.90;;;;;;5095451;28;20081;-46
2022/11/03 12:53:48;;;;;;;2.70;1.23;;;16.40;99.90;;;;;;5095189;28;20038;-46
2022/11/03 12:56:15;;;;;;;5.30;1.58;;;16.50;99.90;;;;;;5094777;28;20032;-42
2022/11/03 12:58:41;;;;;;;3.25;0.88;;;16.70;99.90;;;;;;5104226;28;20468;-40
2022/11/03 13:01:07;;;;;;;9.45;1.50;;;16.80;99.90;;;;;;5105399;28;20070;-43
2022/11/03 13:03:33;;;;;;;3.85;1.15;;;16.90;99.90;;;;;;5115229;28;20043;-43
2022/11/03 13:06:01;;;;;;;2.00;0.75;;;17.00;99.90;;;;;;5115568;28;20091;-44
2022/11/03 13:08:27;;;;;;;2.70;0.95;;;17.30;99.90;;;;;;5106195;28;20068;-40
2022/11/03 13:10:52;;;;;;;2.05;1.02;;;17.30;99.90;;;;;;5095151;28;20461;-41
2022/11/03 13:13:18;;;;;;;3.50;1.10;;;17.30;99.90;;;;;;5095068;28;20130;-44
2022/11/03 13:15:44;;;;;;;3.75;1.83;;;17.30;99.90;;;;;;5096583;28;20093;-42
2022/11/03 13:18:10;;;;;;;2.78;1.02;;;17.20;99.90;;;;;;5095457;28;20057;-47
2022/11/03 13:20:36;;;;;;;6.90;1.45;;;17.00;99.90;;;;;;5109139;28;20102;-44